createdAt,value
2022-11-20T00:01:27.017Z,97821.63
2022-11-20T00:03:55.449Z,97827.53
2022-11-20T00:06:23.103Z,97816.56
2022-11-20T00:08:50.092Z,97825.84
2022-11-20T00:11:19.994Z,97825.00
2022-11-20T00:13:48.261Z,97808.97
2022-11-20T00:16:16.427Z,97800.47
2022-11-20T00:18:43.393Z,97816.50
2022-11-20T00:21:22.265Z,97813.16
2022-11-20T00:23:49.631Z,97814.84
2022-11-20T00:26:18.839Z,97816.56
2022-11-20T00:28:51.017Z,97814.88
2022-11-20T00:31:18.121Z,97803.91
2022-11-20T00:33:45.739Z,97804.75
2022-11-20T00:36:18.064Z,97805.59
2022-11-20T00:38:45.317Z,97804.75
2022-11-20T00:41:16.587Z,97799.69
2022-11-20T00:43:43.700Z,97812.38
2022-11-20T00:46:14.616Z,97816.63
2022-11-20T00:48:41.137Z,97814.91
2022-11-20T00:51:07.773Z,97823.38
2022-11-20T00:53:34.592Z,97826.78
2022-11-20T00:56:03.580Z,97820.03
2022-11-20T00:58:35.632Z,97818.34
2022-11-20T01:01:07.509Z,97818.31
2022-11-20T01:03:42.849Z,97820.88
2022-11-20T01:06:26.222Z,97814.09
2022-11-20T01:09:12.870Z,97819.16
2022-11-20T01:12:07.331Z,97824.25
2022-11-20T01:15:00.781Z,97824.25
2022-11-20T01:17:41.049Z,97829.31
2022-11-20T01:20:14.117Z,97835.25
2022-11-20T01:22:53.339Z,97826.72
2022-11-20T01:25:32.876Z,97833.47
2022-11-20T01:28:04.767Z,97824.19
2022-11-20T01:30:56.022Z,97822.50
2022-11-20T01:33:42.240Z,97819.97
2022-11-20T01:36:35.459Z,97825.84
2022-11-20T01:39:33.320Z,97825.91
2022-11-20T01:42:21.058Z,97828.44
2022-11-20T01:45:00.493Z,97819.16
2022-11-20T01:48:13.348Z,97830.16
2022-11-20T01:53:41.579Z,97825.94
2022-11-20T01:56:13.031Z,97820.88
2022-11-20T01:58:45.773Z,97823.44
2022-11-20T02:01:13.508Z,97817.53
2022-11-20T02:03:40.466Z,97825.13
2022-11-20T02:06:20.405Z,97815.00
2022-11-20T02:08:46.856Z,97817.53
2022-11-20T02:11:13.790Z,97814.13
2022-11-20T02:13:46.517Z,97819.25
2022-11-20T02:16:17.506Z,97805.72
2022-11-20T02:18:45.813Z,97804.06
2022-11-20T02:21:25.336Z,97804.88
2022-11-20T02:24:08.901Z,97804.06
2022-11-20T02:26:42.741Z,97807.41
2022-11-20T02:29:10.855Z,97796.44
2022-11-20T02:31:53.313Z,97797.28
2022-11-20T02:34:19.783Z,97804.06
2022-11-20T02:36:48.908Z,97808.28
2022-11-20T02:39:31.887Z,97803.19
2022-11-20T02:41:58.413Z,97813.38
2022-11-20T02:44:24.884Z,97810.84
2022-11-20T02:46:51.403Z,97800.66
2022-11-20T02:49:18.143Z,97798.97
2022-11-20T02:51:51.141Z,97791.28
2022-11-20T02:54:55.910Z,97809.91
2022-11-20T03:00:19.911Z,97809.91
2022-11-20T03:02:47.175Z,97807.41
2022-11-20T03:05:13.668Z,97802.34
2022-11-20T03:07:40.180Z,97791.38
2022-11-20T03:10:22.033Z,97789.69
2022-11-20T03:12:48.614Z,97779.53
2022-11-20T03:15:15.047Z,97776.19
2022-11-20T03:17:41.592Z,97780.38
2022-11-20T03:20:09.013Z,97771.94
2022-11-20T03:22:35.507Z,97779.53
2022-11-20T03:25:01.963Z,97776.19
2022-11-20T03:27:32.257Z,97767.75
2022-11-20T03:29:59.836Z,97773.66
2022-11-20T03:32:26.285Z,97776.19
2022-11-20T03:34:52.772Z,97774.47
2022-11-20T03:37:19.210Z,97780.41
2022-11-20T03:39:45.683Z,97783.78
2022-11-20T03:42:32.131Z,97773.66
2022-11-20T03:44:58.593Z,97770.28
2022-11-20T03:47:28.956Z,97766.06
2022-11-20T03:50:02.647Z,97774.47
2022-11-20T03:52:29.153Z,97774.47
2022-11-20T03:54:55.597Z,97758.44
2022-11-20T03:57:22.030Z,97768.59
2022-11-20T03:59:48.596Z,97766.03
2022-11-20T04:02:15.054Z,97758.44
2022-11-20T04:04:41.606Z,97750.00
2022-11-20T04:07:14.946Z,97750.81
2022-11-20T04:09:41.463Z,97750.81
2022-11-20T04:12:08.021Z,97750.81
2022-11-20T04:14:34.765Z,97749.13
2022-11-20T04:17:01.421Z,97753.34
2022-11-20T04:19:27.949Z,97761.78
2022-11-20T04:21:56.354Z,97756.72
2022-11-20T04:24:25.624Z,97760.97
2022-11-20T04:26:52.106Z,97760.97
2022-11-20T04:29:18.688Z,97753.38
2022-11-20T04:31:55.539Z,97750.00
2022-11-20T04:34:21.998Z,97754.19
2022-11-20T04:36:48.508Z,97742.38
2022-11-20T04:39:16.354Z,97752.53
2022-11-20T04:41:43.029Z,97744.88
2022-11-20T04:44:09.519Z,97751.66
2022-11-20T04:46:42.250Z,97748.28
2022-11-20T04:49:09.303Z,97751.66
2022-11-20T04:51:39.038Z,97755.06
2022-11-20T04:54:06.240Z,97745.78
2022-11-20T04:56:32.905Z,97743.22
2022-11-20T04:59:03.483Z,97747.47
2022-11-20T05:01:40.973Z,97746.59
2022-11-20T05:04:15.505Z,97741.53
2022-11-20T05:06:42.134Z,97745.78
2022-11-20T05:09:08.778Z,97742.41
2022-11-20T05:11:35.241Z,97746.66
2022-11-20T05:14:01.731Z,97744.09
2022-11-20T05:16:28.569Z,97744.06
2022-11-20T05:18:55.759Z,97744.88
2022-11-20T05:21:22.597Z,97750.84
2022-11-20T05:23:49.895Z,97744.94
2022-11-20T05:26:22.399Z,97752.53
2022-11-20T05:28:49.318Z,97754.22
2022-11-20T05:31:25.018Z,97745.78
2022-11-20T05:33:53.917Z,97729.72
2022-11-20T05:36:24.234Z,97722.97
2022-11-20T05:38:51.538Z,97715.34
2022-11-20T05:41:21.238Z,97727.19
2022-11-20T05:43:49.584Z,97726.34
2022-11-20T05:46:22.329Z,97725.50
2022-11-20T05:48:51.548Z,97722.13
2022-11-20T05:51:19.820Z,97715.34
2022-11-20T05:53:48.543Z,97717.88
2022-11-20T05:56:18.639Z,97722.97
2022-11-20T05:58:45.813Z,97720.44
2022-11-20T06:01:16.106Z,97720.44
2022-11-20T06:03:52.200Z,97722.13
2022-11-20T06:06:19.610Z,97721.28
2022-11-20T06:08:46.525Z,97723.84
2022-11-20T06:11:14.493Z,97722.13
2022-11-20T06:13:42.488Z,97722.13
2022-11-20T06:16:10.608Z,97716.22
2022-11-20T06:18:37.873Z,97719.59
2022-11-20T06:21:10.468Z,97721.31
2022-11-20T06:23:40.358Z,97729.75
2022-11-20T06:26:09.345Z,97722.97
2022-11-20T06:28:35.944Z,97724.66
2022-11-20T06:31:02.656Z,97721.31
2022-11-20T06:33:29.495Z,97722.13
2022-11-20T06:36:03.573Z,97722.13
2022-11-20T06:38:33.807Z,97732.28
2022-11-20T06:41:00.445Z,97724.66
2022-11-20T06:43:32.446Z,97731.44
2022-11-20T06:46:00.042Z,97728.06
2022-11-20T06:48:29.513Z,97724.66
2022-11-20T06:50:56.312Z,97729.75
2022-11-20T06:53:23.931Z,97723.00
2022-11-20T06:55:51.302Z,97728.06
2022-11-20T06:58:18.933Z,97728.91
2022-11-20T07:00:45.430Z,97725.53
2022-11-20T07:03:13.141Z,97731.44
2022-11-20T07:05:40.150Z,97736.53
2022-11-20T07:08:06.906Z,97737.38
2022-11-20T07:10:34.104Z,97748.38
2022-11-20T07:13:00.751Z,97744.13
2022-11-20T07:15:27.532Z,97747.53
2022-11-20T07:17:54.049Z,97736.53
2022-11-20T07:20:20.553Z,97734.84
2022-11-20T07:22:55.784Z,97736.53
2022-11-20T07:25:23.321Z,97737.38
2022-11-20T07:27:49.765Z,97737.38
2022-11-20T07:30:17.449Z,97735.69
2022-11-20T07:32:47.573Z,97734.84
2022-11-20T07:35:14.112Z,97745.00
2022-11-20T07:37:40.519Z,97753.47
2022-11-20T07:40:07.377Z,97746.69
2022-11-20T07:42:33.782Z,97749.25
2022-11-20T07:45:00.167Z,97748.38
2022-11-20T07:47:26.720Z,97740.75
2022-11-20T07:49:53.097Z,97747.53
2022-11-20T07:52:19.529Z,97755.97
2022-11-20T07:54:45.949Z,97751.78
2022-11-20T07:57:12.383Z,97757.69
2022-11-20T07:59:39.830Z,97750.91
2022-11-20T08:02:06.468Z,97747.53
2022-11-20T08:04:34.184Z,97752.59
2022-11-20T08:07:00.908Z,97743.31
2022-11-20T08:09:27.426Z,97743.31
2022-11-20T08:12:12.574Z,97739.94
2022-11-20T08:14:39.058Z,97747.53
2022-11-20T08:17:05.535Z,97750.09
2022-11-20T08:19:32.006Z,97743.31
2022-11-20T08:21:58.535Z,97739.94
2022-11-20T08:24:25.790Z,97743.31
2022-11-20T08:26:52.248Z,97738.28
2022-11-20T08:29:19.498Z,97744.19
2022-11-20T08:31:46.235Z,97739.94
2022-11-20T08:34:17.607Z,97741.63
2022-11-20T08:36:45.654Z,97739.94
2022-11-20T08:39:15.119Z,97735.72
2022-11-20T08:41:41.504Z,97738.22
2022-11-20T08:44:09.045Z,97741.63
2022-11-20T08:46:38.713Z,97739.06
2022-11-20T08:49:06.943Z,97750.94
2022-11-20T08:51:34.102Z,97754.31
2022-11-20T08:54:00.625Z,97750.91
2022-11-20T08:56:27.078Z,97741.63
2022-11-20T09:01:40.429Z,97741.63
2022-11-20T09:04:06.897Z,97736.53
2022-11-20T09:06:33.414Z,97738.22
2022-11-20T09:09:06.157Z,97741.63
2022-11-20T09:11:33.676Z,97739.91
2022-11-20T09:14:01.021Z,97737.38
2022-11-20T09:16:27.442Z,97738.22
2022-11-20T09:19:02.199Z,97736.56
2022-11-20T09:21:39.845Z,97738.22
2022-11-20T09:24:06.512Z,97737.38
2022-11-20T09:26:32.926Z,97739.09
2022-11-20T09:28:59.363Z,97740.75
2022-11-20T09:31:27.159Z,97739.94
2022-11-20T09:33:53.575Z,97739.09
2022-11-20T09:36:20.045Z,97739.94
2022-11-20T09:38:47.105Z,97735.69
2022-11-20T09:41:42.560Z,97734.03
2022-11-20T09:44:09.122Z,97733.13
2022-11-20T09:46:50.790Z,97739.94
2022-11-20T09:49:32.808Z,97752.63
2022-11-20T09:52:18.591Z,97755.16
2022-11-20T09:54:45.427Z,97751.78
2022-11-20T09:57:22.726Z,97746.72
2022-11-20T09:59:58.109Z,97752.63
2022-11-20T10:02:25.034Z,97761.94
2022-11-20T10:05:19.607Z,97758.56
2022-11-20T10:08:07.445Z,97749.22
2022-11-20T10:10:43.976Z,97739.91
2022-11-20T10:13:45.039Z,97744.13
2022-11-20T10:16:20.521Z,97735.69
2022-11-20T10:18:46.828Z,97728.88
2022-11-20T10:21:25.520Z,97725.53
2022-11-20T10:24:02.114Z,97722.13
2022-11-20T10:27:05.981Z,97711.94
2022-11-20T10:29:37.558Z,97712.78
2022-11-20T10:32:12.518Z,97714.50
2022-11-20T10:34:55.926Z,97720.44
2022-11-20T10:37:54.539Z,97712.81
2022-11-20T10:40:33.323Z,97709.44
2022-11-20T10:43:10.868Z,97707.72
2022-11-20T10:45:45.226Z,97706.03
2022-11-20T10:48:24.345Z,97709.41
2022-11-20T10:51:12.406Z,97706.88
2022-11-20T10:54:01.733Z,97712.78
2022-11-20T10:56:49.941Z,97709.41
2022-11-20T10:59:38.530Z,97708.53
2022-11-20T11:02:25.810Z,97717.84
2022-11-20T11:04:55.810Z,97713.59
2022-11-20T11:07:41.599Z,97726.31
2022-11-20T11:10:18.738Z,97730.53
2022-11-20T11:12:48.962Z,97727.97
2022-11-20T11:15:27.159Z,97721.16
2022-11-20T11:17:54.476Z,97716.09
2022-11-20T11:20:26.931Z,97721.16
2022-11-20T11:22:59.242Z,97719.41
2022-11-20T11:25:31.840Z,97712.66
2022-11-20T11:28:01.475Z,97706.69
2022-11-20T11:30:31.240Z,97695.66
2022-11-20T11:33:10.950Z,97695.59
2022-11-20T11:35:49.921Z,97693.81
2022-11-20T11:38:24.797Z,97692.00
2022-11-20T11:40:54.989Z,97691.91
2022-11-20T11:43:43.819Z,97689.25
2022-11-20T11:46:26.690Z,97684.06
2022-11-20T11:49:01.728Z,97686.50
2022-11-20T11:51:34.255Z,97682.22
2022-11-20T11:54:03.236Z,97680.44
2022-11-20T11:56:31.153Z,97693.94
2022-11-20T11:59:01.812Z,97682.84
2022-11-20T12:01:45.675Z,97674.25
2022-11-20T12:04:35.182Z,97670.84
2022-11-20T12:07:38.924Z,97664.78
2022-11-20T12:09:59.461Z,97662.25
2022-11-20T12:12:31.644Z,97671.59
2022-11-20T12:14:59.535Z,97676.59
2022-11-20T12:17:26.014Z,97676.59
2022-11-20T12:19:52.474Z,97681.66
2022-11-20T12:22:40.745Z,97676.38
2022-11-20T12:25:27.789Z,97683.28
2022-11-20T12:27:57.377Z,97674.03
2022-11-20T12:30:25.640Z,97680.84
2022-11-20T12:33:15.379Z,97682.59
2022-11-20T12:36:02.985Z,97672.44
2022-11-20T12:39:07.645Z,97686.06
2022-11-20T12:42:07.349Z,97674.19
2022-11-20T12:45:05.182Z,97675.94
2022-11-20T12:47:56.472Z,97673.44
2022-11-20T12:51:13.330Z,97673.41
2022-11-20T12:53:54.254Z,97666.59
2022-11-20T12:56:43.181Z,97670.81
2022-11-20T12:59:30.922Z,97666.63
2022-11-20T13:02:12.579Z,97670.84
2022-11-20T13:05:08.492Z,97670.19
2022-11-20T13:07:36.373Z,97677.84
2022-11-20T13:10:08.778Z,97660.00
2022-11-20T13:12:45.432Z,97662.56
2022-11-20T13:15:42.609Z,97669.41
2022-11-20T13:18:28.509Z,97670.28
2022-11-20T13:20:55.026Z,97663.50
2022-11-20T13:23:29.039Z,97662.75
2022-11-20T13:26:14.664Z,97668.66
2022-11-20T13:28:41.832Z,97661.00
2022-11-20T13:31:31.294Z,97657.59
2022-11-20T13:34:00.186Z,97665.25
2022-11-20T13:36:28.391Z,97660.97
2022-11-20T13:38:56.717Z,97652.47
2022-11-20T13:41:38.621Z,97662.72
2022-11-20T13:44:11.598Z,97661.91
2022-11-20T13:46:45.479Z,97657.69
2022-11-20T13:49:38.029Z,97661.06
2022-11-20T13:52:44.292Z,97664.47
2022-11-20T13:56:03.710Z,97666.16
2022-11-20T13:59:13.471Z,97675.53
2022-11-20T14:01:44.874Z,97675.59
2022-11-20T14:04:19.235Z,97672.25
2022-11-20T14:06:47.950Z,97679.06
2022-11-20T14:09:27.610Z,97670.53
2022-11-20T14:12:19.067Z,97671.41
2022-11-20T14:14:52.141Z,97673.97
2022-11-20T14:17:23.302Z,97662.94
2022-11-20T14:19:52.317Z,97666.31
2022-11-20T14:22:24.448Z,97665.47
2022-11-20T14:25:04.794Z,97673.97
2022-11-20T14:27:36.008Z,97674.03
2022-11-20T14:30:03.807Z,97674.00
2022-11-20T14:32:32.137Z,97665.53
2022-11-20T14:35:08.532Z,97663.81
2022-11-20T14:37:39.413Z,97673.19
2022-11-20T14:40:28.497Z,97666.34
2022-11-20T14:42:55.924Z,97669.78
2022-11-20T14:45:23.554Z,97660.41
2022-11-20T14:47:52.355Z,97658.72
2022-11-20T14:50:28.505Z,97661.25
2022-11-20T14:53:00.388Z,97649.41
2022-11-20T14:55:38.814Z,97659.59
2022-11-20T14:58:23.300Z,97657.88
2022-11-20T15:00:58.689Z,97658.78
2022-11-20T15:03:41.495Z,97663.03
2022-11-20T15:06:11.551Z,97669.78
2022-11-20T15:08:38.180Z,97663.88
2022-11-20T15:11:20.668Z,97668.97
2022-11-20T15:13:47.263Z,97662.16
2022-11-20T15:16:20.415Z,97660.50
2022-11-20T15:18:47.837Z,97663.88
2022-11-20T15:21:16.990Z,97667.25
2022-11-20T15:23:43.888Z,97668.97
2022-11-20T15:26:18.461Z,97660.50
2022-11-20T15:28:48.911Z,97657.06
2022-11-20T15:31:19.106Z,97659.59
2022-11-20T15:33:45.937Z,97657.97
2022-11-20T15:36:12.448Z,97648.63
2022-11-20T15:38:39.416Z,97659.63
2022-11-20T15:41:06.249Z,97657.09
2022-11-20T15:43:32.798Z,97653.72
2022-11-20T15:46:06.066Z,97657.09
2022-11-20T15:49:00.590Z,97651.16
2022-11-20T15:51:47.939Z,97646.91
2022-11-20T15:54:23.459Z,97640.97
2022-11-20T15:56:53.218Z,97640.16
2022-11-20T15:59:19.960Z,97635.06
2022-11-20T16:01:46.552Z,97629.13
2022-11-20T16:04:15.115Z,97627.44
2022-11-20T16:06:42.265Z,97629.09
2022-11-20T16:09:09.009Z,97630.00
2022-11-20T16:11:38.475Z,97632.56
2022-11-20T16:14:24.877Z,97629.13
2022-11-20T16:16:52.109Z,97635.09
2022-11-20T16:19:19.132Z,97628.28
2022-11-20T16:21:45.694Z,97627.44
2022-11-20T16:24:13.942Z,97630.00
2022-11-20T16:26:41.571Z,97629.97
2022-11-20T16:29:08.195Z,97621.47
2022-11-20T16:31:35.057Z,97623.19
2022-11-20T16:34:08.606Z,97614.69
2022-11-20T16:36:40.741Z,97598.56
2022-11-20T16:39:07.121Z,97608.78
2022-11-20T16:41:37.460Z,97605.38
2022-11-20T16:44:08.502Z,97599.44
2022-11-20T16:46:40.622Z,97611.34
2022-11-20T16:49:11.823Z,97605.38
2022-11-20T16:51:38.310Z,97611.31
2022-11-20T16:54:09.110Z,97623.25
2022-11-20T16:56:35.759Z,97624.06
2022-11-20T16:59:03.247Z,97618.97
2022-11-20T17:01:30.661Z,97602.00
2022-11-20T17:03:59.823Z,97602.84
2022-11-20T17:06:28.791Z,97605.38
2022-11-20T17:08:57.885Z,97596.91
2022-11-20T17:11:25.098Z,97591.78
2022-11-20T17:13:52.112Z,97579.91
2022-11-20T17:16:23.238Z,97580.75
2022-11-20T17:18:50.633Z,97590.94
2022-11-20T17:21:19.021Z,97579.09
2022-11-20T17:23:47.363Z,97561.28
2022-11-20T17:26:19.749Z,97559.53
2022-11-20T17:28:47.889Z,97566.38
2022-11-20T17:31:16.721Z,97552.78
2022-11-20T17:33:45.230Z,97560.47
2022-11-20T17:36:16.649Z,97559.66
2022-11-20T17:38:43.474Z,97574.94
2022-11-20T17:41:17.790Z,97568.22
2022-11-20T17:43:44.650Z,97580.97
2022-11-20T17:46:19.400Z,97567.47
2022-11-20T17:48:49.486Z,97570.88
2022-11-20T17:51:18.888Z,97566.66
2022-11-20T17:53:53.289Z,97564.97
2022-11-20T17:56:39.082Z,97556.50
2022-11-20T17:59:07.011Z,97559.91
2022-11-20T18:01:34.172Z,97566.66
2022-11-20T18:04:01.078Z,97553.94
2022-11-20T18:06:29.082Z,97549.72
2022-11-20T18:08:57.547Z,97550.56
2022-11-20T18:11:27.310Z,97540.47
2022-11-20T18:14:16.599Z,97531.09
2022-11-20T18:16:45.937Z,97531.16
2022-11-20T18:19:21.900Z,97531.13
2022-11-20T18:21:48.305Z,97519.31
2022-11-20T18:24:14.890Z,97526.13
2022-11-20T18:26:44.463Z,97518.53
2022-11-20T18:29:11.928Z,97518.50
2022-11-20T18:31:38.650Z,97519.38
2022-11-20T18:34:06.274Z,97516.84
2022-11-20T18:36:32.900Z,97506.66
2022-11-20T18:39:01.628Z,97507.53
2022-11-20T18:41:49.052Z,97501.59
2022-11-20T18:44:42.519Z,97503.22
2022-11-20T18:47:14.839Z,97500.59
2022-11-20T18:49:50.658Z,97490.38
2022-11-20T18:52:18.481Z,97490.31
2022-11-20T18:54:44.915Z,97484.31
2022-11-20T18:57:14.494Z,97482.56
2022-11-20T18:59:42.763Z,97478.22
2022-11-20T19:02:18.097Z,97459.50
2022-11-20T19:04:44.842Z,97453.50
2022-11-20T19:07:12.242Z,97458.50
2022-11-20T19:09:43.311Z,97457.59
2022-11-20T19:12:11.468Z,97455.06
2022-11-20T19:14:37.945Z,97452.44
2022-11-20T19:17:06.815Z,97449.00
2022-11-20T19:19:34.524Z,97451.50
2022-11-20T19:22:00.971Z,97449.72
2022-11-20T19:24:28.342Z,97450.56
2022-11-20T19:26:56.084Z,97444.66
2022-11-20T19:29:24.781Z,97445.47
2022-11-20T19:31:51.521Z,97439.50
2022-11-20T19:34:19.353Z,97440.31
2022-11-20T19:36:45.890Z,97436.88
2022-11-20T19:39:12.853Z,97439.44
2022-11-20T19:41:40.911Z,97435.97
2022-11-20T19:44:14.025Z,97430.78
2022-11-20T19:46:43.398Z,97426.59
2022-11-20T19:49:12.585Z,97427.41
2022-11-20T19:51:44.634Z,97424.88
2022-11-20T19:54:11.063Z,97419.72
2022-11-20T19:56:37.464Z,97423.97
2022-11-20T19:59:06.985Z,97420.59
2022-11-20T20:01:35.281Z,97432.47
2022-11-20T20:04:02.960Z,97424.75
2022-11-20T20:06:30.012Z,97428.19
2022-11-20T20:09:02.434Z,97423.06
2022-11-20T20:11:31.322Z,97423.91
2022-11-20T20:13:59.018Z,97428.94
2022-11-20T20:16:28.902Z,97431.44
2022-11-20T20:19:00.829Z,97425.56
2022-11-20T20:21:27.542Z,97428.94
2022-11-20T20:23:55.697Z,97426.44
2022-11-20T20:26:24.163Z,97421.41
2022-11-20T20:28:51.317Z,97413.72
2022-11-20T20:31:20.028Z,97408.63
2022-11-20T20:33:46.757Z,97401.78
2022-11-20T20:36:17.506Z,97402.66
2022-11-20T20:38:45.993Z,97398.28
2022-11-20T20:41:19.517Z,97400.81
2022-11-20T20:44:11.885Z,97401.72
2022-11-20T20:46:39.004Z,97407.66
2022-11-20T20:49:05.442Z,97406.88
2022-11-20T20:51:31.875Z,97414.53
2022-11-20T20:53:58.343Z,97403.44
2022-11-20T20:56:25.135Z,97400.03
2022-11-20T20:58:51.499Z,97405.03
2022-11-20T21:01:19.353Z,97396.59
2022-11-20T21:03:45.919Z,97390.66
2022-11-20T21:06:12.786Z,97389.78
2022-11-20T21:08:40.915Z,97376.19
2022-11-20T21:11:07.977Z,97379.63
2022-11-20T21:13:35.939Z,97376.28
2022-11-20T21:16:03.550Z,97374.56
2022-11-20T21:18:32.866Z,97367.75
2022-11-20T21:21:18.002Z,97360.97
2022-11-20T21:23:47.755Z,97356.81
2022-11-20T21:26:15.855Z,97355.91
2022-11-20T21:28:42.326Z,97344.03
2022-11-20T21:31:24.786Z,97340.59
2022-11-20T21:33:52.935Z,97348.22
2022-11-20T21:36:24.219Z,97353.38
2022-11-20T21:38:52.230Z,97348.31
2022-11-20T21:41:18.766Z,97333.75
2022-11-20T21:43:45.715Z,97338.75
2022-11-20T21:46:15.636Z,97338.84
2022-11-20T21:48:43.636Z,97335.44
2022-11-20T21:51:15.569Z,97323.50
2022-11-20T21:53:42.865Z,97327.72
2022-11-20T21:56:10.982Z,97314.16
2022-11-20T21:58:39.184Z,97319.25
2022-11-20T22:01:24.035Z,97314.94
2022-11-20T22:03:52.811Z,97305.56
2022-11-20T22:06:20.784Z,97303.91
2022-11-20T22:08:48.676Z,97298.81
2022-11-20T22:11:18.733Z,97298.84
2022-11-20T22:14:03.733Z,97285.22
2022-11-20T22:16:30.654Z,97286.03
2022-11-20T22:18:58.605Z,97286.88
2022-11-20T22:21:27.205Z,97285.16
2022-11-20T22:23:55.066Z,97289.41
2022-11-20T22:26:24.130Z,97295.22
2022-11-20T22:28:52.789Z,97290.22
2022-11-20T22:31:20.841Z,97281.72
2022-11-20T22:33:47.293Z,97284.25
2022-11-20T22:36:16.402Z,97284.25
2022-11-20T22:38:43.412Z,97293.56
2022-11-20T22:41:18.012Z,97284.25
2022-11-20T22:43:45.398Z,97288.44
2022-11-20T22:46:13.243Z,97285.91
2022-11-20T22:48:53.719Z,97283.34
2022-11-20T22:51:23.150Z,97280.78
2022-11-20T22:53:50.304Z,97272.28
2022-11-20T22:56:17.305Z,97266.22
2022-11-20T22:58:47.731Z,97264.56
2022-11-20T23:01:15.336Z,97266.22
2022-11-20T23:03:44.524Z,97263.72
2022-11-20T23:06:12.338Z,97268.75
2022-11-20T23:08:40.300Z,97272.06
2022-11-20T23:11:12.214Z,97276.31
2022-11-20T23:13:39.449Z,97275.47
2022-11-20T23:16:14.839Z,97281.34
2022-11-20T23:18:42.878Z,97281.22
2022-11-20T23:21:15.489Z,97278.72
2022-11-20T23:23:42.837Z,97279.50
2022-11-20T23:26:14.455Z,97275.34
2022-11-20T23:28:41.950Z,97272.00
2022-11-20T23:31:09.646Z,97262.56
2022-11-20T23:33:37.833Z,97274.44
2022-11-20T23:36:05.241Z,97271.13
2022-11-20T23:38:31.756Z,97270.22
2022-11-20T23:40:58.248Z,97265.19
2022-11-20T23:43:25.156Z,97267.75
2022-11-20T23:45:56.672Z,97269.47
2022-11-20T23:48:25.734Z,97256.69
2022-11-20T23:50:52.243Z,97256.63
2022-11-20T23:53:19.325Z,97256.66
2022-11-20T23:55:47.533Z,97250.66
2022-11-20T23:58:14.446Z,97254.94
